createdAt,value
2018-01-29T00:00:43.354Z,9.46
2018-01-29T00:01:43.362Z,9.61
2018-01-29T00:02:43.390Z,9.46
2018-01-29T00:03:43.399Z,9.57
2018-01-29T00:04:43.417Z,9.68
2018-01-29T00:05:43.434Z,9.91
2018-01-29T00:06:43.449Z,9.66
2018-01-29T00:07:43.469Z,9.68
2018-01-29T00:08:43.490Z,9.81
2018-01-29T00:09:43.501Z,9.49
2018-01-29T00:10:43.531Z,9.61
2018-01-29T00:11:43.534Z,9.66
2018-01-29T00:12:43.554Z,9.70
2018-01-29T00:13:43.576Z,9.56
2018-01-29T00:14:43.588Z,9.50
2018-01-29T00:15:43.609Z,9.63
2018-01-29T00:16:43.622Z,9.79
2018-01-29T00:17:43.640Z,9.85
2018-01-29T00:18:43.655Z,9.73
2018-01-29T00:19:43.675Z,9.61
2018-01-29T00:20:43.687Z,9.67
2018-01-29T00:21:43.706Z,9.82
2018-01-29T00:22:43.723Z,9.85
2018-01-29T00:23:43.741Z,9.76
2018-01-29T00:24:43.760Z,9.64
2018-01-29T00:25:43.774Z,9.45
2018-01-29T00:26:43.821Z,9.42
2018-01-29T00:27:43.816Z,9.34
2018-01-29T00:28:43.831Z,9.46
2018-01-29T00:29:43.848Z,9.42
2018-01-29T00:30:43.862Z,9.60
2018-01-29T00:31:43.881Z,9.68
2018-01-29T00:32:43.895Z,9.56
2018-01-29T00:33:43.912Z,9.68
2018-01-29T00:34:43.932Z,9.75
2018-01-29T00:35:43.953Z,9.61
2018-01-29T00:36:43.967Z,9.66
2018-01-29T00:37:43.983Z,9.53
2018-01-29T00:38:44.001Z,9.70
2018-01-29T00:39:44.018Z,9.70
2018-01-29T00:40:44.033Z,9.57
2018-01-29T00:41:44.054Z,9.46
2018-01-29T00:42:44.069Z,9.45
2018-01-29T00:43:44.087Z,9.38
2018-01-29T00:44:44.100Z,9.50
2018-01-29T00:45:44.125Z,9.53
2018-01-29T00:46:44.132Z,9.58
2018-01-29T00:47:44.149Z,9.56
2018-01-29T00:48:44.177Z,9.56
2018-01-29T00:49:44.188Z,9.38
2018-01-29T00:50:44.209Z,9.57
2018-01-29T00:51:44.229Z,9.60
2018-01-29T00:52:44.246Z,9.49
2018-01-29T00:53:44.258Z,9.46
2018-01-29T00:54:44.273Z,9.40
2018-01-29T00:55:44.292Z,9.40
2018-01-29T00:56:44.307Z,9.34
2018-01-29T00:57:44.327Z,9.42
2018-01-29T00:58:44.338Z,9.63
2018-01-29T00:59:44.356Z,9.78
2018-01-29T01:00:44.378Z,9.68
2018-01-29T01:01:44.399Z,9.66
2018-01-29T01:02:44.412Z,9.79
2018-01-29T01:03:44.512Z,9.64
2018-01-29T01:04:44.444Z,9.50
2018-01-29T01:05:44.512Z,9.71
2018-01-29T01:06:44.484Z,9.68
2018-01-29T01:07:44.501Z,9.75
2018-01-29T01:08:44.511Z,9.73
2018-01-29T01:09:44.531Z,9.66
2018-01-29T01:10:44.544Z,9.45
2018-01-29T01:11:44.567Z,9.57
2018-01-29T01:12:44.579Z,9.66
2018-01-29T01:13:44.604Z,9.64
2018-01-29T01:14:44.615Z,9.61
2018-01-29T01:15:44.631Z,9.75
2018-01-29T01:16:44.661Z,9.60
2018-01-29T01:17:44.673Z,9.66
2018-01-29T01:18:44.681Z,9.66
2018-01-29T01:19:44.703Z,9.52
2018-01-29T01:20:44.714Z,9.46
2018-01-29T01:21:44.734Z,9.46
2018-01-29T01:22:44.754Z,9.49
2018-01-29T01:23:44.768Z,9.60
2018-01-29T01:24:44.787Z,9.68
2018-01-29T01:25:44.807Z,9.76
2018-01-29T01:26:44.821Z,9.70
2018-01-29T01:27:44.834Z,9.66
2018-01-29T01:28:44.856Z,9.78
2018-01-29T01:29:44.869Z,9.86
2018-01-29T01:30:44.891Z,9.63
2018-01-29T01:31:44.905Z,9.66
2018-01-29T01:32:44.924Z,9.56
2018-01-29T01:33:44.936Z,9.73
2018-01-29T01:34:44.957Z,9.70
2018-01-29T01:35:44.976Z,9.60
2018-01-29T01:36:44.991Z,9.64
2018-01-29T01:37:45.006Z,9.49
2018-01-29T01:38:45.025Z,9.68
2018-01-29T01:39:45.043Z,9.71
2018-01-29T01:40:45.060Z,9.68
2018-01-29T01:41:45.077Z,9.61
2018-01-29T01:42:45.097Z,9.56
2018-01-29T01:43:45.109Z,9.67
2018-01-29T01:44:45.124Z,9.67
2018-01-29T01:45:45.145Z,9.68
2018-01-29T01:46:45.157Z,9.66
2018-01-29T01:47:45.173Z,9.64
2018-01-29T01:48:45.192Z,9.70
2018-01-29T01:49:45.206Z,9.78
2018-01-29T01:50:45.232Z,9.79
2018-01-29T01:51:45.238Z,9.81
2018-01-29T01:52:45.261Z,9.73
2018-01-29T01:53:45.282Z,9.78
2018-01-29T01:54:45.290Z,9.68
2018-01-29T01:55:45.307Z,9.71
2018-01-29T01:56:45.330Z,9.70
2018-01-29T01:57:45.344Z,9.70
2018-01-29T01:58:45.361Z,9.63
2018-01-29T01:59:45.374Z,9.61
2018-01-29T02:00:45.395Z,9.56
2018-01-29T02:01:45.410Z,9.76
2018-01-29T02:02:45.429Z,9.70
2018-01-29T02:03:45.449Z,9.61
2018-01-29T02:04:45.466Z,9.75
2018-01-29T02:05:45.479Z,9.79
2018-01-29T02:06:45.495Z,9.60
2018-01-29T02:07:45.510Z,9.49
2018-01-29T02:08:45.530Z,9.63
2018-01-29T02:09:45.543Z,9.73
2018-01-29T02:10:45.563Z,9.68
2018-01-29T02:11:45.577Z,9.49
2018-01-29T02:12:45.596Z,9.68
2018-01-29T02:13:45.614Z,9.75
2018-01-29T02:14:45.627Z,9.66
2018-01-29T02:15:45.643Z,9.60
2018-01-29T02:16:45.668Z,9.73
2018-01-29T02:17:45.680Z,9.68
2018-01-29T02:18:45.697Z,9.67
2018-01-29T02:19:45.716Z,9.58
2018-01-29T02:20:45.737Z,9.49
2018-01-29T02:21:45.754Z,9.64
2018-01-29T02:22:45.767Z,9.64
2018-01-29T02:23:45.782Z,9.67
2018-01-29T02:24:45.795Z,9.79
2018-01-29T02:25:45.828Z,9.60
2018-01-29T02:26:45.889Z,9.73
2018-01-29T02:27:45.875Z,9.61
2018-01-29T02:28:45.867Z,9.66
2018-01-29T02:29:45.938Z,9.67
2018-01-29T02:30:45.914Z,9.82
2018-01-29T02:31:45.946Z,9.68
2018-01-29T02:32:45.962Z,9.68
2018-01-29T02:33:45.956Z,9.79
2018-01-29T02:34:45.975Z,9.57
2018-01-29T02:35:45.987Z,9.71
2018-01-29T02:36:46.032Z,9.66
2018-01-29T02:37:46.022Z,9.68
2018-01-29T02:38:46.041Z,9.82
2018-01-29T02:39:46.131Z,9.73
2018-01-29T02:40:46.104Z,9.57
2018-01-29T02:41:46.115Z,9.71
2018-01-29T02:42:46.152Z,9.75
2018-01-29T02:43:46.124Z,9.70
2018-01-29T02:44:46.146Z,9.71
2018-01-29T02:45:46.199Z,9.79
2018-01-29T02:46:46.290Z,9.70
2018-01-29T02:47:46.193Z,9.70
2018-01-29T02:48:46.248Z,9.63
2018-01-29T02:49:46.225Z,9.46
2018-01-29T02:50:46.243Z,9.61
2018-01-29T02:51:46.258Z,9.66
2018-01-29T02:52:46.279Z,9.73
2018-01-29T02:53:46.315Z,9.63
2018-01-29T02:54:46.314Z,9.66
2018-01-29T02:55:46.333Z,9.66
2018-01-29T02:56:46.349Z,9.53
2018-01-29T02:57:46.363Z,9.67
2018-01-29T02:58:46.390Z,9.64
2018-01-29T02:59:46.396Z,9.82
2018-01-29T03:00:46.419Z,10.00
2018-01-29T03:01:46.433Z,9.86
2018-01-29T03:02:46.452Z,9.96
2018-01-29T03:03:46.547Z,9.94
2018-01-29T03:04:46.486Z,9.89
2018-01-29T03:05:46.504Z,9.85
2018-01-29T03:06:46.518Z,9.75
2018-01-29T03:07:46.533Z,9.85
2018-01-29T03:08:46.608Z,9.79
2018-01-29T03:09:46.573Z,9.86
2018-01-29T03:10:46.590Z,9.67
2018-01-29T03:11:46.606Z,9.82
2018-01-29T03:12:46.621Z,9.81
2018-01-29T03:13:46.675Z,9.71
2018-01-29T03:14:46.662Z,9.63
2018-01-29T03:15:46.678Z,9.71
2018-01-29T03:16:46.690Z,9.83
2018-01-29T03:17:46.707Z,9.76
2018-01-29T03:18:46.730Z,9.64
2018-01-29T03:19:46.740Z,9.48
2018-01-29T03:20:46.761Z,9.63
2018-01-29T03:21:46.776Z,9.79
2018-01-29T03:22:46.788Z,9.71
2018-01-29T03:23:46.890Z,9.71
2018-01-29T03:24:46.825Z,9.71
2018-01-29T03:25:46.844Z,9.73
2018-01-29T03:26:46.863Z,9.57
2018-01-29T03:27:46.880Z,9.38
2018-01-29T03:28:46.896Z,9.45
2018-01-29T03:29:46.919Z,9.70
2018-01-29T03:30:46.930Z,9.67
2018-01-29T03:31:46.946Z,9.57
2018-01-29T03:32:46.968Z,9.53
2018-01-29T03:33:46.977Z,9.73
2018-01-29T03:34:46.999Z,9.64
2018-01-29T03:35:47.017Z,9.70
2018-01-29T03:36:47.032Z,9.63
2018-01-29T03:37:47.051Z,9.66
2018-01-29T03:38:47.063Z,9.60
2018-01-29T03:39:47.088Z,9.67
2018-01-29T03:40:47.098Z,9.61
2018-01-29T03:41:47.120Z,9.70
2018-01-29T03:42:47.130Z,9.49
2018-01-29T03:43:47.146Z,9.60
2018-01-29T03:44:47.180Z,9.61
2018-01-29T03:45:47.186Z,9.61
2018-01-29T03:46:47.204Z,9.71
2018-01-29T03:47:47.217Z,9.57
2018-01-29T03:48:47.234Z,9.35
2018-01-29T03:49:47.278Z,9.49
2018-01-29T03:50:47.267Z,9.60
2018-01-29T03:51:47.287Z,9.63
2018-01-29T03:52:47.350Z,9.49
2018-01-29T03:53:47.322Z,9.63
2018-01-29T03:54:47.336Z,9.49
2018-01-29T03:55:47.375Z,9.58
2018-01-29T03:56:47.364Z,9.45
2018-01-29T03:57:47.389Z,9.53
2018-01-29T03:58:47.401Z,9.73
2018-01-29T03:59:47.422Z,9.81
2018-01-29T04:00:47.440Z,9.71
2018-01-29T04:01:47.455Z,9.56
2018-01-29T04:02:47.468Z,9.46
2018-01-29T04:03:47.488Z,9.53
2018-01-29T04:04:47.508Z,9.42
2018-01-29T04:05:47.523Z,9.49
2018-01-29T04:06:47.533Z,9.28
2018-01-29T04:07:47.558Z,9.48
2018-01-29T04:08:47.570Z,9.40
2018-01-29T04:09:47.590Z,9.46
2018-01-29T04:10:47.605Z,9.32
2018-01-29T04:11:47.628Z,9.48
2018-01-29T04:12:47.640Z,9.64
2018-01-29T04:13:47.658Z,9.50
2018-01-29T04:14:47.671Z,9.43
2018-01-29T04:15:47.700Z,9.43
2018-01-29T04:16:47.708Z,9.32
2018-01-29T04:17:47.726Z,9.40
2018-01-29T04:18:47.740Z,9.71
2018-01-29T04:19:47.762Z,9.58
2018-01-29T04:20:47.780Z,9.56
2018-01-29T04:21:47.795Z,9.52
2018-01-29T04:22:47.809Z,9.39
2018-01-29T04:23:47.831Z,9.53
2018-01-29T04:24:47.845Z,9.67
2018-01-29T04:25:47.860Z,9.56
2018-01-29T04:26:47.887Z,9.61
2018-01-29T04:27:47.890Z,9.79
2018-01-29T04:28:47.910Z,9.61
2018-01-29T04:29:47.932Z,9.66
2018-01-29T04:30:47.943Z,9.66
2018-01-29T04:31:47.962Z,9.64
2018-01-29T04:32:48.014Z,9.61
2018-01-29T04:33:48.004Z,9.64
2018-01-29T04:34:48.018Z,9.60
2018-01-29T04:35:48.029Z,9.75
2018-01-29T04:36:48.053Z,9.63
2018-01-29T04:37:48.139Z,9.49
2018-01-29T04:38:48.081Z,9.56
2018-01-29T04:39:48.093Z,9.58
2018-01-29T04:40:48.120Z,9.66
2018-01-29T04:41:48.133Z,9.67
2018-01-29T04:42:48.153Z,9.63
2018-01-29T04:43:48.169Z,9.66
2018-01-29T04:44:48.184Z,9.52
2018-01-29T04:45:48.197Z,9.67
2018-01-29T04:46:48.219Z,9.63
2018-01-29T04:47:48.247Z,9.61
2018-01-29T04:48:48.254Z,9.64
2018-01-29T04:49:48.271Z,9.79
2018-01-29T04:50:48.282Z,9.83
2018-01-29T04:51:48.317Z,9.85
2018-01-29T04:52:48.321Z,9.68
2018-01-29T04:53:48.343Z,9.67
2018-01-29T04:54:48.352Z,9.70
2018-01-29T04:55:48.367Z,9.66
2018-01-29T04:56:48.390Z,9.66
2018-01-29T04:57:48.414Z,9.73
2018-01-29T04:58:48.420Z,9.63
2018-01-29T04:59:48.436Z,9.58
2018-01-29T05:00:48.454Z,9.61
2018-01-29T05:01:48.480Z,9.64
2018-01-29T05:02:48.502Z,9.67
2018-01-29T05:03:48.504Z,9.49
2018-01-29T05:04:48.520Z,9.46
2018-01-29T05:05:48.552Z,9.66
2018-01-29T05:06:48.557Z,9.46
2018-01-29T05:07:48.589Z,9.58
2018-01-29T05:08:48.595Z,9.48
2018-01-29T05:09:48.611Z,9.38
2018-01-29T05:10:48.634Z,9.46
2018-01-29T05:11:48.641Z,9.63
2018-01-29T05:12:48.663Z,9.63
2018-01-29T05:13:48.682Z,9.60
2018-01-29T05:14:48.723Z,9.50
2018-01-29T05:15:48.714Z,9.35
2018-01-29T05:16:48.733Z,9.52
2018-01-29T05:17:48.752Z,9.48
2018-01-29T05:18:48.760Z,9.63
2018-01-29T05:19:48.776Z,9.57
2018-01-29T05:20:48.796Z,9.48
2018-01-29T05:21:48.826Z,9.46
2018-01-29T05:22:48.832Z,9.58
2018-01-29T05:23:48.847Z,9.49
2018-01-29T05:24:48.890Z,9.45
2018-01-29T05:25:48.878Z,9.60
2018-01-29T05:26:48.896Z,9.57
2018-01-29T05:27:48.913Z,9.67
2018-01-29T05:28:48.930Z,9.61
2018-01-29T05:29:48.954Z,9.63
2018-01-29T05:30:48.971Z,9.56
2018-01-29T05:31:48.974Z,9.43
2018-01-29T05:32:48.995Z,9.49
2018-01-29T05:33:49.010Z,9.49
2018-01-29T05:34:49.028Z,9.61
2018-01-29T05:35:49.045Z,9.61
2018-01-29T05:36:49.061Z,9.64
2018-01-29T05:37:49.081Z,9.66
2018-01-29T05:38:49.093Z,9.71
2018-01-29T05:39:49.118Z,9.68
2018-01-29T05:40:49.129Z,9.70
2018-01-29T05:41:49.144Z,9.68
2018-01-29T05:42:49.161Z,9.68
2018-01-29T05:43:49.175Z,9.70
2018-01-29T05:44:49.197Z,9.63
2018-01-29T05:45:49.213Z,9.53
2018-01-29T05:46:49.228Z,9.61
2018-01-29T05:47:49.244Z,9.66
2018-01-29T05:48:49.263Z,9.81
2018-01-29T05:49:49.284Z,9.64
2018-01-29T05:50:49.295Z,9.73
2018-01-29T05:51:49.401Z,9.64
2018-01-29T05:52:49.326Z,9.73
2018-01-29T05:53:49.346Z,9.70
2018-01-29T05:54:49.364Z,9.60
2018-01-29T05:55:49.379Z,9.76
2018-01-29T05:56:49.395Z,9.68
2018-01-29T05:57:49.409Z,9.63
2018-01-29T05:58:49.430Z,9.68
2018-01-29T05:59:49.443Z,9.70
2018-01-29T06:00:49.461Z,9.68
2018-01-29T06:01:49.475Z,9.66
2018-01-29T06:02:49.491Z,9.68
2018-01-29T06:03:49.509Z,9.63
2018-01-29T06:04:49.523Z,9.60
2018-01-29T06:05:49.548Z,9.66
2018-01-29T06:06:49.558Z,9.81
2018-01-29T06:07:49.577Z,9.85
2018-01-29T06:08:49.620Z,9.79
2018-01-29T06:09:49.617Z,9.71
2018-01-29T06:10:49.630Z,9.71
2018-01-29T06:11:49.645Z,9.78
2018-01-29T06:12:49.666Z,9.83
2018-01-29T06:13:49.673Z,9.75
2018-01-29T06:14:49.689Z,9.75
2018-01-29T06:15:49.723Z,9.73
2018-01-29T06:16:49.728Z,9.78
2018-01-29T06:17:49.740Z,9.78
2018-01-29T06:18:49.787Z,9.85
2018-01-29T06:19:49.771Z,9.76
2018-01-29T06:20:49.792Z,9.79
2018-01-29T06:21:49.808Z,9.83
2018-01-29T06:22:49.825Z,9.71
2018-01-29T06:23:49.844Z,9.81
2018-01-29T06:24:49.859Z,9.71
2018-01-29T06:25:49.873Z,9.66
2018-01-29T06:26:49.888Z,9.75
2018-01-29T06:27:49.909Z,9.68
2018-01-29T06:28:49.976Z,9.81
2018-01-29T06:29:49.943Z,9.81
2018-01-29T06:30:49.954Z,9.85
2018-01-29T06:31:49.978Z,9.83
2018-01-29T06:32:50.001Z,9.71
2018-01-29T06:33:50.007Z,9.66
2018-01-29T06:34:50.023Z,9.68
2018-01-29T06:35:50.042Z,9.61
2018-01-29T06:36:50.056Z,9.73
2018-01-29T06:37:50.137Z,9.79
2018-01-29T06:38:50.091Z,9.85
2018-01-29T06:39:50.124Z,9.75
2018-01-29T06:40:50.120Z,9.71
2018-01-29T06:41:50.140Z,9.66
2018-01-29T06:42:50.158Z,9.75
2018-01-29T06:43:50.174Z,9.71
2018-01-29T06:44:50.189Z,9.71
2018-01-29T06:45:50.211Z,9.82
2018-01-29T06:46:50.224Z,9.78
2018-01-29T06:47:50.259Z,9.75
2018-01-29T06:48:50.268Z,9.71
2018-01-29T06:49:50.268Z,9.68
2018-01-29T06:50:50.294Z,9.68
2018-01-29T06:51:50.305Z,9.68
2018-01-29T06:52:50.333Z,9.76
2018-01-29T06:53:50.342Z,9.85
2018-01-29T06:54:50.355Z,9.68
2018-01-29T06:55:50.367Z,9.61
2018-01-29T06:56:50.413Z,9.61
2018-01-29T06:57:50.430Z,9.67
2018-01-29T06:58:50.416Z,9.75
2018-01-29T06:59:50.433Z,9.68
2018-01-29T07:00:50.449Z,9.81
2018-01-29T07:01:50.478Z,9.78
2018-01-29T07:02:50.484Z,9.70
2018-01-29T07:03:50.501Z,9.73
2018-01-29T07:04:50.518Z,9.75
2018-01-29T07:05:50.533Z,9.82
2018-01-29T07:06:50.555Z,9.78
2018-01-29T07:07:50.566Z,9.89
2018-01-29T07:08:50.587Z,9.82
2018-01-29T07:09:50.605Z,9.83
2018-01-29T07:10:50.624Z,9.76
2018-01-29T07:11:50.635Z,9.75
2018-01-29T07:12:50.650Z,9.67
2018-01-29T07:13:50.672Z,9.81
2018-01-29T07:14:50.686Z,9.68
2018-01-29T07:15:50.706Z,9.88
2018-01-29T07:16:50.715Z,9.91
2018-01-29T07:17:50.738Z,9.73
2018-01-29T07:18:50.750Z,9.79
2018-01-29T07:19:50.766Z,9.82
2018-01-29T07:20:50.789Z,9.85
2018-01-29T07:21:50.802Z,9.78
2018-01-29T07:22:50.816Z,9.85
2018-01-29T07:23:50.830Z,9.76
2018-01-29T07:24:50.853Z,9.85
2018-01-29T07:25:50.867Z,9.78
2018-01-29T07:26:50.883Z,9.76
2018-01-29T07:27:50.908Z,9.78
2018-01-29T07:28:50.919Z,9.81
2018-01-29T07:29:50.935Z,9.82
2018-01-29T07:30:50.952Z,9.96
2018-01-29T07:31:50.964Z,9.83
2018-01-29T07:32:50.983Z,9.89
2018-01-29T07:33:51.002Z,9.97
2018-01-29T07:34:51.013Z,9.88
2018-01-29T07:35:51.034Z,9.97
2018-01-29T07:36:52.835Z,9.79
2018-01-29T07:37:51.069Z,9.81
2018-01-29T07:38:51.089Z,9.76
2018-01-29T07:39:51.106Z,9.96
2018-01-29T07:40:51.118Z,9.79
2018-01-29T07:41:51.133Z,9.96
2018-01-29T07:42:51.150Z,9.93
2018-01-29T07:43:51.166Z,9.81
2018-01-29T07:44:51.189Z,9.85
2018-01-29T07:45:51.204Z,9.81
2018-01-29T07:46:51.215Z,9.66
2018-01-29T07:47:51.232Z,9.82
2018-01-29T07:48:51.250Z,9.82
2018-01-29T07:49:51.270Z,9.76
2018-01-29T07:50:51.279Z,9.82
2018-01-29T07:51:51.301Z,9.79
2018-01-29T07:52:51.314Z,9.75
2018-01-29T07:53:51.335Z,9.85
2018-01-29T07:54:51.346Z,9.91
2018-01-29T07:55:51.368Z,9.91
2018-01-29T07:56:51.384Z,10.01
2018-01-29T07:57:51.403Z,9.91
2018-01-29T07:58:51.419Z,9.94
2018-01-29T07:59:51.438Z,9.79
2018-01-29T08:00:51.457Z,9.83
2018-01-29T08:01:51.468Z,9.88
2018-01-29T08:02:51.479Z,9.78
2018-01-29T08:03:51.504Z,9.83
2018-01-29T08:04:51.520Z,9.86
2018-01-29T08:05:51.542Z,9.85
2018-01-29T08:06:51.548Z,9.78
2018-01-29T08:07:51.576Z,9.88
2018-01-29T08:08:51.587Z,9.93
2018-01-29T08:09:51.606Z,9.79
2018-01-29T08:10:51.625Z,9.93
2018-01-29T08:11:51.634Z,10.04
2018-01-29T08:12:51.651Z,9.97
2018-01-29T08:13:51.669Z,10.07
2018-01-29T08:14:51.692Z,9.93
2018-01-29T08:15:51.701Z,9.93
2018-01-29T08:16:51.720Z,10.01
2018-01-29T08:17:51.738Z,9.91
2018-01-29T08:18:51.754Z,9.85
2018-01-29T08:19:51.767Z,9.97
2018-01-29T08:20:51.784Z,9.97
2018-01-29T08:21:51.801Z,10.00
2018-01-29T08:22:51.820Z,9.91
2018-01-29T08:23:51.842Z,9.96
2018-01-29T08:24:51.858Z,9.88
2018-01-29T08:25:51.880Z,9.94
2018-01-29T08:26:51.885Z,9.89
2018-01-29T08:27:51.909Z,9.83
2018-01-29T08:28:51.919Z,10.03
2018-01-29T08:29:51.946Z,9.93
2018-01-29T08:30:51.955Z,9.94
2018-01-29T08:31:51.988Z,9.91
2018-01-29T08:32:51.987Z,9.99
2018-01-29T08:33:52.009Z,9.96
2018-01-29T08:34:52.025Z,10.07
2018-01-29T08:35:52.069Z,10.00
2018-01-29T08:36:52.064Z,10.10
2018-01-29T08:37:52.074Z,10.15
2018-01-29T08:38:52.088Z,10.10
2018-01-29T08:39:52.109Z,10.10
2018-01-29T08:40:52.125Z,10.04
2018-01-29T08:41:52.142Z,9.94
2018-01-29T08:42:52.159Z,10.00
2018-01-29T08:43:52.194Z,10.01
2018-01-29T08:44:52.193Z,9.93
2018-01-29T08:45:52.208Z,10.12
2018-01-29T08:46:52.224Z,10.09
2018-01-29T08:47:52.249Z,10.12
2018-01-29T08:48:52.257Z,10.10
2018-01-29T08:49:52.276Z,9.99
2018-01-29T08:50:52.291Z,10.06
2018-01-29T08:51:52.309Z,10.07
2018-01-29T08:52:52.324Z,10.00
2018-01-29T08:53:52.349Z,10.12
2018-01-29T08:54:52.359Z,10.04
2018-01-29T08:55:52.436Z,10.18
2018-01-29T08:56:52.396Z,10.18
2018-01-29T08:57:52.413Z,10.14
2018-01-29T08:58:52.433Z,10.18
2018-01-29T08:59:52.442Z,10.06
2018-01-29T09:00:52.484Z,9.96
2018-01-29T09:01:52.481Z,10.00
2018-01-29T09:02:52.545Z,10.21
2018-01-29T09:03:52.514Z,10.14
2018-01-29T09:04:52.527Z,10.18
2018-01-29T09:05:52.543Z,10.21
2018-01-29T09:06:52.562Z,10.06
2018-01-29T09:07:52.579Z,10.10
2018-01-29T09:08:52.619Z,10.15
2018-01-29T09:09:52.616Z,10.22
2018-01-29T09:10:52.629Z,10.18
2018-01-29T09:11:52.644Z,10.18
2018-01-29T09:12:52.671Z,10.21
2018-01-29T09:13:52.683Z,10.19
2018-01-29T09:14:52.698Z,10.18
2018-01-29T09:15:52.720Z,10.21
2018-01-29T09:16:52.732Z,10.18
2018-01-29T09:17:52.749Z,10.06
2018-01-29T09:18:52.766Z,10.21
2018-01-29T09:19:52.788Z,10.25
2018-01-29T09:20:52.892Z,10.37
2018-01-29T09:21:52.815Z,10.30
2018-01-29T09:22:52.832Z,10.24
2018-01-29T09:23:52.856Z,10.30
2018-01-29T09:24:52.866Z,10.22
2018-01-29T09:25:52.886Z,10.21
2018-01-29T09:26:52.905Z,10.25
2018-01-29T09:27:52.921Z,10.30
2018-01-29T09:28:52.929Z,10.19
2018-01-29T09:29:52.955Z,10.30
2018-01-29T09:30:52.966Z,10.36
2018-01-29T09:31:52.979Z,10.37
2018-01-29T09:32:52.999Z,10.40
2018-01-29T09:33:53.015Z,10.36
2018-01-29T09:34:53.035Z,10.21
2018-01-29T09:35:53.050Z,10.37
2018-01-29T09:36:53.066Z,10.39
2018-01-29T09:37:53.083Z,10.55
2018-01-29T09:38:53.098Z,10.42
2018-01-29T09:39:53.125Z,10.43
2018-01-29T09:40:53.131Z,10.42
2018-01-29T09:41:53.151Z,10.37
2018-01-29T09:42:53.164Z,10.44
2018-01-29T09:43:53.181Z,10.55
2018-01-29T09:44:53.201Z,10.55
2018-01-29T09:45:53.253Z,10.24
2018-01-29T09:46:53.229Z,10.43
2018-01-29T09:47:53.254Z,10.55
2018-01-29T09:48:53.269Z,10.59
2018-01-29T09:49:53.289Z,10.60
2018-01-29T09:50:53.303Z,10.66
2018-01-29T09:51:54.869Z,10.58
2018-01-29T09:52:53.338Z,10.62
2018-01-29T09:53:53.352Z,10.68
2018-01-29T09:54:53.370Z,10.73
2018-01-29T09:55:53.383Z,10.55
2018-01-29T09:56:53.407Z,10.39
2018-01-29T09:57:53.423Z,10.56
2018-01-29T09:58:53.439Z,10.55
2018-01-29T09:59:53.458Z,10.53
2018-01-29T10:00:53.477Z,10.68
2018-01-29T10:01:53.488Z,10.51
2018-01-29T10:02:53.512Z,10.58
2018-01-29T10:03:53.530Z,10.65
2018-01-29T10:04:53.545Z,10.66
2018-01-29T10:05:53.564Z,10.71
2018-01-29T10:06:53.578Z,10.59
2018-01-29T10:07:53.595Z,10.76
2018-01-29T10:08:53.619Z,10.74
2018-01-29T10:09:53.652Z,10.76
2018-01-29T10:10:53.649Z,10.84
2018-01-29T10:11:53.667Z,10.78
2018-01-29T10:12:53.683Z,10.76
2018-01-29T10:13:53.699Z,10.86
2018-01-29T10:14:53.720Z,10.84
2018-01-29T10:15:53.737Z,10.88
2018-01-29T10:16:53.753Z,10.81
2018-01-29T10:17:53.768Z,10.60
2018-01-29T10:18:53.788Z,10.44
2018-01-29T10:19:53.802Z,10.51
2018-01-29T10:20:53.827Z,10.51
2018-01-29T10:21:53.838Z,10.60
2018-01-29T10:22:53.856Z,10.63
2018-01-29T10:23:53.874Z,10.76
2018-01-29T10:24:53.888Z,10.58
2018-01-29T10:25:53.908Z,10.56
2018-01-29T10:26:53.925Z,10.55
2018-01-29T10:27:53.942Z,10.59
2018-01-29T10:28:53.961Z,10.56
2018-01-29T10:29:53.979Z,10.73
2018-01-29T10:30:53.991Z,10.70
2018-01-29T10:31:54.016Z,10.76
2018-01-29T10:32:54.027Z,10.52
2018-01-29T10:33:54.046Z,10.52
2018-01-29T10:34:54.116Z,10.59
2018-01-29T10:35:54.082Z,10.62
2018-01-29T10:36:54.097Z,10.53
2018-01-29T10:37:54.113Z,10.70
2018-01-29T10:38:54.134Z,10.70
2018-01-29T10:39:54.157Z,10.66
2018-01-29T10:40:54.175Z,10.62
2018-01-29T10:41:54.185Z,10.47
2018-01-29T10:42:54.204Z,10.42
2018-01-29T10:43:54.218Z,10.56
2018-01-29T10:44:54.239Z,10.65
2018-01-29T10:45:54.253Z,10.63
2018-01-29T10:46:54.270Z,10.59
2018-01-29T10:47:54.287Z,10.70
2018-01-29T10:48:54.306Z,10.60
2018-01-29T10:49:54.326Z,10.74
2018-01-29T10:50:54.342Z,10.43
2018-01-29T10:51:54.363Z,10.42
2018-01-29T10:52:54.382Z,10.53
2018-01-29T10:53:54.396Z,10.65
2018-01-29T10:54:54.409Z,10.63
2018-01-29T10:55:54.432Z,10.52
2018-01-29T10:56:54.445Z,10.60
2018-01-29T10:57:54.467Z,10.53
2018-01-29T10:58:54.486Z,10.39
2018-01-29T10:59:54.498Z,10.63
2018-01-29T11:00:54.517Z,10.58
2018-01-29T11:01:54.536Z,10.70
2018-01-29T11:02:54.554Z,10.66
2018-01-29T11:03:54.579Z,10.71
2018-01-29T11:04:54.586Z,10.65
2018-01-29T11:05:54.604Z,10.60
2018-01-29T11:06:54.622Z,10.71
2018-01-29T11:07:54.634Z,10.59
2018-01-29T11:08:54.662Z,10.65
2018-01-29T11:09:54.673Z,10.56
2018-01-29T11:10:54.701Z,10.68
2018-01-29T11:11:54.704Z,10.58
2018-01-29T11:12:54.728Z,10.62
2018-01-29T11:13:54.745Z,10.58
2018-01-29T11:14:54.759Z,10.53
2018-01-29T11:15:54.779Z,10.58
2018-01-29T11:16:54.796Z,10.56
2018-01-29T11:17:54.812Z,10.68
2018-01-29T11:18:54.839Z,10.59
2018-01-29T11:19:54.848Z,10.63
2018-01-29T11:20:54.863Z,10.51
2018-01-29T11:21:54.886Z,10.55
2018-01-29T11:22:54.901Z,10.46
2018-01-29T11:23:54.918Z,10.62
2018-01-29T11:24:55.030Z,10.62
2018-01-29T11:25:54.952Z,10.58
2018-01-29T11:26:54.972Z,10.76
2018-01-29T11:27:54.993Z,10.63
2018-01-29T11:28:55.004Z,10.70
2018-01-29T11:29:55.019Z,10.77
2018-01-29T11:30:55.038Z,10.70
2018-01-29T11:31:55.056Z,10.65
2018-01-29T11:32:55.073Z,10.62
2018-01-29T11:33:55.087Z,10.53
2018-01-29T11:34:55.116Z,10.62
2018-01-29T11:35:55.131Z,10.68
2018-01-29T11:36:55.141Z,10.71
2018-01-29T11:37:55.162Z,10.73
2018-01-29T11:38:55.180Z,10.77
2018-01-29T11:39:55.198Z,10.76
2018-01-29T11:40:55.222Z,10.74
2018-01-29T11:41:55.230Z,10.73
2018-01-29T11:42:55.243Z,10.86
2018-01-29T11:43:55.269Z,10.81
2018-01-29T11:44:55.282Z,10.65
2018-01-29T11:45:55.299Z,10.65
2018-01-29T11:46:55.323Z,10.77
2018-01-29T11:47:55.329Z,10.83
2018-01-29T11:48:55.357Z,10.84
2018-01-29T11:49:55.371Z,10.99
2018-01-29T11:50:55.387Z,10.84
2018-01-29T11:51:55.402Z,10.98
2018-01-29T11:52:55.426Z,11.07
2018-01-29T11:53:55.514Z,11.06
2018-01-29T11:54:55.610Z,11.01
2018-01-29T11:55:55.471Z,10.98
2018-01-29T11:56:55.490Z,10.98
2018-01-29T11:57:55.503Z,11.03
2018-01-29T11:58:55.521Z,11.01
2018-01-29T11:59:55.545Z,10.94
2018-01-29T12:00:55.562Z,10.74
2018-01-29T12:01:55.649Z,10.86
2018-01-29T12:02:55.597Z,10.92
2018-01-29T12:03:55.612Z,10.94
2018-01-29T12:04:55.631Z,11.01
2018-01-29T12:05:55.646Z,10.68
2018-01-29T12:06:55.668Z,10.86
2018-01-29T12:07:55.677Z,10.92
2018-01-29T12:08:55.699Z,10.95
2018-01-29T12:09:55.723Z,10.86
2018-01-29T12:10:55.731Z,10.95
2018-01-29T12:11:55.762Z,10.80
2018-01-29T12:12:55.770Z,10.81
2018-01-29T12:13:55.787Z,10.74
2018-01-29T12:14:55.802Z,10.76
2018-01-29T12:15:55.822Z,10.83
2018-01-29T12:16:55.840Z,10.91
2018-01-29T12:17:55.854Z,10.83
2018-01-29T12:18:55.881Z,10.81
2018-01-29T12:19:55.897Z,10.86
2018-01-29T12:20:55.961Z,10.99
2018-01-29T12:21:55.924Z,10.65
2018-01-29T12:22:55.952Z,10.81
2018-01-29T12:23:55.963Z,10.98
2018-01-29T12:24:55.996Z,10.94
2018-01-29T12:25:56.001Z,10.83
2018-01-29T12:26:56.025Z,10.84
2018-01-29T12:27:56.031Z,10.96
2018-01-29T12:28:56.049Z,10.94
2018-01-29T12:29:56.074Z,11.02
2018-01-29T12:30:56.084Z,10.92
2018-01-29T12:31:56.107Z,11.02
2018-01-29T12:32:56.125Z,11.11
2018-01-29T12:33:56.139Z,11.02
2018-01-29T12:34:56.162Z,11.02
2018-01-29T12:35:56.173Z,11.13
2018-01-29T12:36:56.193Z,11.06
2018-01-29T12:37:56.218Z,11.02
2018-01-29T12:38:56.314Z,10.89
2018-01-29T12:39:56.242Z,10.96
2018-01-29T12:40:56.272Z,11.06
2018-01-29T12:41:56.277Z,10.86
2018-01-29T12:42:56.302Z,11.03
2018-01-29T12:43:56.323Z,11.02
2018-01-29T12:44:56.339Z,11.07
2018-01-29T12:45:56.351Z,11.06
2018-01-29T12:46:56.364Z,11.19
2018-01-29T12:47:56.384Z,10.99
2018-01-29T12:48:56.400Z,10.89
2018-01-29T12:49:56.419Z,10.68
2018-01-29T12:50:56.436Z,10.81
2018-01-29T12:51:56.460Z,10.80
2018-01-29T12:52:56.474Z,10.84
2018-01-29T12:53:56.493Z,10.78
2018-01-29T12:54:56.516Z,10.96
2018-01-29T12:55:56.530Z,10.99
2018-01-29T12:56:56.551Z,10.94
2018-01-29T12:57:56.562Z,10.89
2018-01-29T12:58:56.629Z,11.01
2018-01-29T12:59:56.598Z,11.02
2018-01-29T13:00:56.616Z,10.84
2018-01-29T13:01:56.626Z,10.83
2018-01-29T13:02:56.652Z,10.84
2018-01-29T13:03:56.665Z,10.81
2018-01-29T13:04:56.685Z,10.84
2018-01-29T13:05:56.704Z,10.81
2018-01-29T13:06:56.719Z,10.81
2018-01-29T13:07:56.736Z,10.86
2018-01-29T13:08:56.755Z,10.91
2018-01-29T13:09:56.782Z,10.91